createdAt,value
2023-02-16T00:05:27.022Z,50.43
2023-02-16T00:11:35.350Z,52.17
2023-02-16T00:18:09.492Z,53.86
2023-02-16T00:24:56.021Z,55.20
2023-02-16T00:30:56.367Z,56.38
2023-02-16T00:37:29.702Z,57.76
2023-02-16T00:43:18.839Z,58.49
2023-02-16T00:49:25.794Z,59.18
2023-02-16T00:55:24.725Z,59.96
2023-02-16T01:01:28.010Z,60.63
2023-02-16T01:08:21.821Z,60.96
2023-02-16T01:14:00.820Z,70.34
2023-02-16T01:19:57.827Z,63.71
2023-02-16T01:25:43.474Z,52.18
2023-02-16T01:31:46.709Z,50.63
2023-02-16T01:37:48.119Z,51.73
2023-02-16T01:43:51.066Z,53.28
2023-02-16T01:50:24.886Z,54.86
2023-02-16T02:02:02.334Z,58.42
2023-02-16T02:07:05.746Z,58.69
2023-02-16T02:12:21.203Z,57.79
2023-02-16T02:17:25.657Z,58.87
2023-02-16T02:23:04.394Z,59.72
2023-02-16T02:28:20.847Z,60.90
2023-02-16T02:33:54.774Z,61.38
2023-02-16T02:39:26.253Z,68.76
2023-02-16T02:44:31.873Z,64.94
2023-02-16T02:49:36.093Z,53.37
2023-02-16T02:55:00.080Z,50.90
2023-02-16T03:00:28.469Z,51.79
2023-02-16T03:05:34.758Z,52.92
2023-02-16T03:10:56.958Z,54.53
2023-02-16T03:16:06.378Z,55.79
2023-02-16T03:21:32.492Z,57.16
2023-02-16T03:26:56.488Z,58.24
2023-02-16T03:32:00.211Z,58.87
2023-02-16T03:37:05.791Z,59.28
2023-02-16T03:42:09.137Z,60.47
2023-02-16T03:47:12.664Z,60.88
2023-02-16T03:52:16.011Z,61.31
2023-02-16T03:57:19.274Z,61.39
2023-02-16T04:02:23.381Z,61.34
2023-02-16T04:07:26.982Z,61.54
2023-02-16T04:12:39.392Z,61.83
2023-02-16T04:17:45.198Z,68.85
2023-02-16T04:22:49.225Z,66.68
2023-02-16T04:27:53.891Z,53.38
2023-02-16T04:32:59.033Z,50.48
2023-02-16T04:38:02.732Z,51.49
2023-02-16T04:43:06.204Z,52.84
2023-02-16T04:48:09.530Z,55.04
2023-02-16T04:53:12.872Z,56.49
2023-02-16T04:58:17.278Z,57.11
2023-02-16T05:03:21.022Z,58.13
2023-02-16T05:08:24.542Z,59.76
2023-02-16T05:13:46.399Z,60.54
2023-02-16T05:18:49.863Z,60.84
2023-02-16T05:23:53.397Z,61.32
2023-02-16T05:28:57.289Z,61.52
2023-02-16T05:34:00.600Z,67.97
2023-02-16T05:39:04.294Z,66.31
2023-02-16T05:44:09.036Z,52.70
2023-02-16T05:49:12.664Z,49.98
2023-02-16T05:54:19.069Z,51.22
2023-02-16T05:59:22.866Z,52.37
2023-02-16T06:04:26.390Z,53.78
2023-02-16T06:09:31.663Z,55.33
2023-02-16T06:14:34.909Z,56.05
2023-02-16T06:19:38.680Z,56.92
2023-02-16T06:24:42.195Z,58.19
2023-02-16T06:29:45.640Z,58.94
2023-02-16T06:34:49.022Z,59.63
2023-02-16T06:39:52.377Z,60.35
2023-02-16T06:44:55.961Z,61.08
2023-02-16T06:49:59.421Z,61.08
2023-02-16T06:55:03.831Z,61.23
2023-02-16T07:00:08.111Z,61.64
2023-02-16T07:05:12.020Z,61.54
2023-02-16T07:10:15.359Z,61.50
2023-02-16T07:15:19.153Z,61.69
2023-02-16T07:20:22.694Z,61.66
2023-02-16T07:25:26.668Z,61.82
2023-02-16T07:30:30.199Z,61.99
2023-02-16T07:35:37.330Z,69.05
2023-02-16T07:40:41.809Z,63.62
2023-02-16T07:45:45.022Z,51.93
2023-02-16T07:50:48.394Z,51.80
2023-02-16T07:55:52.078Z,53.37
2023-02-16T08:01:08.094Z,55.41
2023-02-16T08:06:13.255Z,56.68
2023-02-16T08:11:22.712Z,58.03
2023-02-16T08:16:28.684Z,58.99
2023-02-16T08:21:34.260Z,59.57
2023-02-16T08:26:40.557Z,59.87
2023-02-16T08:31:46.646Z,60.34
2023-02-16T08:36:56.928Z,60.37
2023-02-16T08:42:02.115Z,60.55
2023-02-16T08:47:05.551Z,60.69
2023-02-16T08:52:10.356Z,60.88
2023-02-16T08:57:13.642Z,61.11
2023-02-16T09:02:18.372Z,61.03
2023-02-16T09:07:22.521Z,60.96
2023-02-16T09:12:26.407Z,60.77
2023-02-16T09:17:30.099Z,60.97
2023-02-16T09:22:33.625Z,60.73
2023-02-16T09:27:37.545Z,60.39
2023-02-16T09:32:41.498Z,60.15
2023-02-16T09:37:45.430Z,59.76
2023-02-16T09:43:05.244Z,59.70
2023-02-16T09:48:24.674Z,59.04
2023-02-16T09:53:41.102Z,58.46
2023-02-16T09:58:53.796Z,58.60
2023-02-16T10:04:24.773Z,58.39
2023-02-16T10:09:30.459Z,58.50
2023-02-16T10:14:47.369Z,58.31
2023-02-16T10:19:56.511Z,58.00
2023-02-16T10:25:23.541Z,57.30
2023-02-16T10:30:32.029Z,57.40
2023-02-16T10:35:47.662Z,56.90
2023-02-16T10:41:30.022Z,56.10
2023-02-16T10:46:41.039Z,56.15
2023-02-16T10:51:49.244Z,55.40
2023-02-16T10:57:04.227Z,55.30
2023-02-16T11:02:25.639Z,55.13
2023-02-16T11:07:31.590Z,54.91
2023-02-16T11:12:42.597Z,54.41
2023-02-16T11:18:00.272Z,53.50
2023-02-16T11:23:26.135Z,52.35
2023-02-16T11:28:38.211Z,51.01
2023-02-16T11:33:43.640Z,51.41
2023-02-16T11:38:59.606Z,51.18
2023-02-16T11:44:04.260Z,50.76
2023-02-16T11:49:41.654Z,50.85
2023-02-16T11:54:56.273Z,50.27
2023-02-16T12:00:02.363Z,49.51
2023-02-16T12:05:18.195Z,49.50
2023-02-16T12:10:21.668Z,49.55
2023-02-16T12:15:30.552Z,49.26
2023-02-16T12:21:12.842Z,48.75
2023-02-16T12:26:19.174Z,48.91
2023-02-16T12:31:34.904Z,48.30
2023-02-16T12:36:49.035Z,48.71
2023-02-16T12:42:28.211Z,47.78
2023-02-16T12:47:45.533Z,47.56
2023-02-16T12:52:58.102Z,48.72
2023-02-16T12:58:30.968Z,48.50
2023-02-16T13:03:51.615Z,48.07
2023-02-16T13:09:07.403Z,47.73
2023-02-16T13:14:17.362Z,46.88
2023-02-16T13:19:21.156Z,47.87
2023-02-16T13:24:38.890Z,47.43
2023-02-16T13:30:01.681Z,47.51
2023-02-16T13:35:36.541Z,47.55
2023-02-16T13:41:18.975Z,47.14
2023-02-16T13:46:32.666Z,47.20
2023-02-16T13:51:47.509Z,45.84
2023-02-16T13:56:51.956Z,45.81
2023-02-16T14:01:57.553Z,45.61
2023-02-16T14:07:03.794Z,45.79
2023-02-16T14:12:12.000Z,46.01
2023-02-16T14:17:22.038Z,45.85
2023-02-16T14:22:33.558Z,46.04
2023-02-16T14:27:43.908Z,46.06
2023-02-16T14:32:51.482Z,46.88
2023-02-16T14:38:06.036Z,47.43
2023-02-16T14:43:34.632Z,46.82
2023-02-16T14:49:19.512Z,46.81
2023-02-16T14:54:57.813Z,47.13
2023-02-16T15:00:29.249Z,47.09
2023-02-16T15:05:38.089Z,47.04
2023-02-16T15:10:47.845Z,46.87
2023-02-16T15:15:56.427Z,47.27
2023-02-16T15:21:01.041Z,47.32
2023-02-16T15:26:15.452Z,47.74
2023-02-16T15:31:24.150Z,47.81
2023-02-16T16:46:30.242Z,50.78
2023-02-16T16:52:42.698Z,51.05
2023-02-16T16:58:08.693Z,51.36
2023-02-16T17:04:18.950Z,51.82
2023-02-16T17:10:06.643Z,51.96
2023-02-16T17:15:27.776Z,52.28
2023-02-16T17:27:12.911Z,52.70
2023-02-16T17:32:49.684Z,52.84
2023-02-16T17:37:56.022Z,52.83
2023-02-16T17:43:22.302Z,52.89
2023-02-16T17:48:56.650Z,52.90
2023-02-16T17:54:20.242Z,52.78
2023-02-16T17:59:34.260Z,52.56
2023-02-16T18:04:50.367Z,52.54
2023-02-16T18:10:19.573Z,52.51
2023-02-16T18:16:22.529Z,52.45
2023-02-16T18:21:58.470Z,52.51
2023-02-16T18:27:45.385Z,52.53
2023-02-16T18:33:34.232Z,52.56
2023-02-16T18:39:48.742Z,52.63
2023-02-16T18:45:22.749Z,52.88
2023-02-16T18:51:02.295Z,52.98
2023-02-16T18:56:57.607Z,53.09
2023-02-16T19:03:22.242Z,53.45
2023-02-16T19:09:26.379Z,53.81
2023-02-16T19:14:47.607Z,54.11
2023-02-16T19:20:12.319Z,54.49
2023-02-16T19:25:39.498Z,54.60
2023-02-16T19:31:59.553Z,54.53
2023-02-16T19:38:16.404Z,54.50
2023-02-16T19:44:02.044Z,54.61
2023-02-16T19:50:22.116Z,54.78
2023-02-16T19:56:18.665Z,55.22
2023-02-16T20:02:18.522Z,55.05
2023-02-16T20:08:23.814Z,55.01
2023-02-16T20:14:38.011Z,55.12
2023-02-16T20:20:22.091Z,55.33
2023-02-16T20:25:56.950Z,55.47
2023-02-16T20:32:06.325Z,55.60
2023-02-16T20:37:41.753Z,55.85
2023-02-16T20:43:27.771Z,55.73
2023-02-16T20:48:59.384Z,55.85
2023-02-16T20:54:52.150Z,56.04
2023-02-16T21:00:20.043Z,55.92
2023-02-16T21:06:06.183Z,56.02
2023-02-16T21:11:43.243Z,56.02
2023-02-16T21:16:57.436Z,56.27
2023-02-16T21:22:47.522Z,56.60
2023-02-16T21:28:36.858Z,56.95
2023-02-16T21:34:08.981Z,57.15
2023-02-16T21:40:15.877Z,57.17
2023-02-16T21:46:20.120Z,57.31
2023-02-16T21:52:15.390Z,57.48
2023-02-16T21:58:25.608Z,57.56
2023-02-16T22:04:33.590Z,57.51
2023-02-16T22:10:39.571Z,57.47
2023-02-16T22:16:35.155Z,57.44
2023-02-16T22:22:51.013Z,57.40
2023-02-16T22:29:08.879Z,57.46
2023-02-16T22:35:52.731Z,57.52
2023-02-16T22:41:23.356Z,57.58
2023-02-16T22:47:00.091Z,57.67
2023-02-16T22:52:53.821Z,57.64
2023-02-16T22:59:01.086Z,57.50
2023-02-16T23:05:08.408Z,57.88
2023-02-16T23:11:25.971Z,58.08
2023-02-16T23:17:33.633Z,58.18
2023-02-16T23:23:38.851Z,58.34
2023-02-16T23:29:10.951Z,58.34
2023-02-16T23:35:12.343Z,58.35
2023-02-16T23:40:47.231Z,58.34
2023-02-16T23:46:39.012Z,58.44
2023-02-16T23:58:46.461Z,58.64
